createdAt,value
2023-04-02T00:02:20.797Z,9.88
2023-04-02T00:07:33.348Z,9.96
2023-04-02T00:12:35.368Z,9.81
2023-04-02T00:17:37.123Z,9.76
2023-04-02T00:22:44.579Z,9.76
2023-04-02T00:27:46.637Z,9.82
2023-04-02T00:32:48.905Z,9.81
2023-04-02T00:37:51.784Z,9.68
2023-04-02T00:43:00.081Z,9.60
2023-04-02T00:48:31.372Z,9.58
2023-04-02T00:53:34.838Z,9.47
2023-04-02T00:58:37.485Z,9.25
2023-04-02T01:03:41.240Z,9.11
2023-04-02T01:08:49.153Z,9.13
2023-04-02T01:14:06.890Z,9.17
2023-04-02T01:19:27.255Z,9.24
2023-04-02T01:24:34.831Z,9.27
2023-04-02T01:29:42.231Z,9.16
2023-04-02T01:34:47.703Z,9.03
2023-04-02T01:40:14.613Z,8.88
2023-04-02T01:45:19.653Z,9.08
2023-04-02T01:50:24.689Z,9.22
2023-04-02T01:55:31.614Z,9.27
2023-04-02T02:00:37.490Z,9.36
2023-04-02T02:05:40.311Z,9.43
2023-04-02T02:10:42.103Z,9.48
2023-04-02T02:15:44.659Z,9.52
2023-04-02T02:20:47.336Z,9.31
2023-04-02T02:25:49.553Z,9.14
2023-04-02T02:30:58.812Z,8.97
2023-04-02T02:36:24.669Z,8.84
2023-04-02T02:41:34.566Z,8.92
2023-04-02T02:46:43.338Z,9.04
2023-04-02T02:51:49.264Z,9.16
2023-04-02T02:57:03.413Z,9.16
2023-04-02T03:02:09.319Z,9.23
2023-04-02T03:07:11.917Z,9.30
2023-04-02T03:12:19.586Z,9.39
2023-04-02T03:17:45.517Z,9.31
2023-04-02T03:23:19.205Z,9.14
2023-04-02T03:28:27.656Z,9.21
2023-04-02T03:33:35.861Z,9.15
2023-04-02T03:39:18.627Z,9.03
2023-04-02T03:44:44.757Z,9.10
2023-04-02T03:49:49.750Z,9.19
2023-04-02T03:54:53.802Z,9.24
2023-04-02T04:00:17.089Z,9.27
2023-04-02T04:05:39.798Z,9.34
2023-04-02T04:10:43.804Z,9.38
2023-04-02T04:15:45.745Z,9.29
2023-04-02T04:20:56.569Z,9.23
2023-04-02T04:26:12.523Z,9.25
2023-04-02T04:31:34.743Z,9.18
2023-04-02T04:37:01.713Z,9.20
2023-04-02T04:42:13.111Z,9.35
2023-04-02T04:47:23.176Z,9.39
2023-04-02T04:52:33.021Z,9.41
2023-04-02T04:57:38.081Z,9.17
2023-04-02T05:03:03.401Z,8.95
2023-04-02T05:08:22.564Z,8.74
2023-04-02T05:13:33.965Z,8.55
2023-04-02T05:18:58.456Z,8.36
2023-04-02T05:24:28.990Z,8.01
2023-04-02T05:29:38.655Z,8.00
2023-04-02T05:34:42.971Z,7.89
2023-04-02T05:39:46.422Z,7.91
2023-04-02T05:45:20.967Z,7.87
2023-04-02T05:50:46.942Z,7.90
2023-04-02T05:56:20.187Z,7.81
2023-04-02T06:01:33.773Z,7.84
2023-04-02T06:06:43.762Z,7.89
2023-04-02T06:11:58.135Z,7.66
2023-04-02T06:17:00.493Z,7.74
2023-04-02T06:22:17.747Z,7.62
2023-04-02T06:27:24.573Z,7.77
2023-04-02T06:32:27.443Z,7.57
2023-04-02T06:37:40.300Z,7.75
2023-04-02T06:42:59.619Z,7.85
2023-04-02T06:48:17.954Z,7.67
2023-04-02T06:53:27.748Z,7.49
2023-04-02T06:58:31.219Z,7.55
2023-04-02T07:03:34.302Z,7.50
2023-04-02T07:08:44.040Z,7.62
2023-04-02T07:13:46.492Z,7.18
2023-04-02T07:18:49.131Z,7.51
2023-04-02T07:23:51.599Z,7.38
2023-04-02T07:28:54.378Z,7.47
2023-04-02T07:33:59.865Z,7.25
2023-04-02T07:39:02.161Z,7.24
2023-04-02T07:44:04.476Z,7.10
2023-04-02T07:49:06.475Z,6.94
2023-04-02T07:54:10.283Z,7.00
2023-04-02T07:59:12.175Z,7.30
2023-04-02T08:04:22.177Z,7.56
2023-04-02T08:09:24.042Z,7.70
2023-04-02T08:14:26.401Z,7.53
2023-04-02T08:19:28.264Z,7.69
2023-04-02T08:24:29.988Z,7.41
2023-04-02T08:29:32.488Z,6.99
2023-04-02T08:34:34.213Z,7.07
2023-04-02T08:39:35.959Z,6.97
2023-04-02T08:44:52.032Z,6.95
2023-04-02T08:49:58.998Z,6.94
2023-04-02T08:55:02.758Z,6.74
2023-04-02T09:00:16.597Z,7.10
2023-04-02T09:05:28.301Z,7.23
2023-04-02T09:10:54.856Z,6.88
2023-04-02T09:16:07.323Z,6.92
2023-04-02T09:21:21.271Z,7.30
2023-04-02T09:26:27.244Z,7.24
2023-04-02T09:31:41.646Z,7.07
2023-04-02T09:36:43.544Z,7.06
2023-04-02T09:41:55.694Z,6.90
2023-04-02T09:47:23.296Z,7.00
2023-04-02T09:52:29.850Z,7.00
2023-04-02T09:57:33.385Z,7.14
2023-04-02T10:02:35.487Z,7.13
2023-04-02T10:07:43.921Z,7.51
2023-04-02T10:12:49.534Z,7.39
2023-04-02T10:18:06.941Z,7.10
2023-04-02T10:23:16.687Z,6.59
2023-04-02T10:28:46.090Z,6.20
2023-04-02T10:34:10.031Z,6.49
2023-04-02T10:39:34.257Z,6.65
2023-04-02T10:44:51.636Z,6.59
2023-04-02T10:50:18.525Z,6.88
2023-04-02T10:55:29.032Z,7.14
2023-04-02T11:00:34.994Z,6.90
2023-04-02T11:05:46.751Z,7.08
2023-04-02T11:10:53.398Z,7.16
2023-04-02T11:15:55.561Z,7.11
2023-04-02T11:21:00.158Z,7.16
2023-04-02T11:26:47.584Z,7.17
2023-04-02T11:31:51.616Z,7.17
2023-04-02T11:36:53.843Z,7.30
2023-04-02T11:42:04.831Z,6.84
2023-04-02T11:47:15.566Z,6.65
2023-04-02T11:52:25.978Z,7.20
2023-04-02T11:57:42.522Z,7.24
2023-04-02T12:03:17.187Z,7.51
2023-04-02T12:09:09.115Z,7.19
2023-04-02T12:14:46.547Z,6.92
2023-04-02T12:19:50.482Z,7.31
2023-04-02T12:24:56.580Z,7.17
2023-04-02T12:30:21.517Z,6.77
2023-04-02T12:35:34.268Z,7.23
2023-04-02T12:40:36.197Z,8.02
2023-04-02T12:45:38.839Z,7.77
2023-04-02T12:50:41.910Z,7.64
2023-04-02T12:55:48.624Z,7.86
2023-04-02T13:00:50.874Z,7.27
2023-04-02T13:05:57.351Z,7.23
2023-04-02T13:11:01.751Z,7.26
2023-04-02T13:16:14.962Z,7.23
2023-04-02T13:21:16.638Z,7.31
2023-04-02T13:26:21.997Z,7.27
2023-04-02T13:31:23.889Z,7.67
2023-04-02T13:36:26.631Z,7.25
2023-04-02T13:41:31.069Z,7.54
2023-04-02T13:46:34.759Z,7.53
2023-04-02T13:51:39.689Z,7.62
2023-04-02T13:56:41.444Z,7.31
2023-04-02T14:01:45.662Z,7.32
2023-04-02T14:06:56.657Z,7.09
2023-04-02T14:12:14.368Z,7.01
2023-04-02T14:17:22.186Z,7.39
2023-04-02T14:22:53.281Z,7.50
2023-04-02T14:28:03.684Z,7.22
2023-04-02T14:33:18.072Z,7.52
2023-04-02T14:38:51.218Z,7.73
2023-04-02T14:43:58.256Z,7.02
2023-04-02T14:49:09.027Z,7.26
2023-04-02T14:54:30.186Z,7.46
2023-04-02T14:59:39.427Z,7.28
2023-04-02T15:04:45.424Z,7.09
2023-04-02T15:09:53.281Z,6.88
2023-04-02T15:15:02.900Z,6.82
2023-04-02T15:20:15.961Z,6.64
2023-04-02T15:25:36.496Z,6.58
2023-04-02T15:30:43.288Z,6.49
2023-04-02T15:36:00.463Z,6.22
2023-04-02T15:41:26.570Z,6.34
2023-04-02T15:46:50.516Z,6.21
2023-04-02T15:52:05.524Z,6.55
2023-04-02T15:57:29.217Z,6.65
2023-04-02T16:02:58.523Z,6.23
2023-04-02T16:08:31.670Z,5.66
2023-04-02T16:13:36.596Z,5.87
2023-04-02T16:18:55.739Z,5.72
2023-04-02T16:23:57.588Z,5.89
2023-04-02T16:29:11.479Z,6.01
2023-04-02T16:34:36.570Z,6.03
2023-04-02T16:39:45.712Z,5.89
2023-04-02T16:45:11.966Z,5.95
2023-04-02T16:50:30.865Z,6.09
2023-04-02T16:55:48.737Z,5.99
2023-04-02T17:01:01.009Z,5.93
2023-04-02T17:06:09.456Z,5.94
2023-04-02T17:11:37.332Z,5.70
2023-04-02T17:16:44.025Z,5.71
2023-04-02T17:21:48.661Z,5.80
2023-04-02T17:26:57.068Z,5.57
2023-04-02T17:32:01.949Z,5.65
2023-04-02T17:37:33.213Z,5.50
2023-04-02T17:42:53.832Z,5.29
2023-04-02T17:48:03.266Z,5.48
2023-04-02T17:53:32.133Z,5.32
2023-04-02T17:58:42.694Z,5.49
2023-04-02T18:03:53.343Z,5.45
2023-04-02T18:09:29.144Z,5.34
2023-04-02T18:14:42.960Z,5.12
2023-04-02T18:19:53.386Z,5.23
2023-04-02T18:25:03.786Z,5.42
2023-04-02T18:30:34.300Z,5.38
2023-04-02T18:36:22.864Z,5.30
2023-04-02T18:42:05.491Z,5.33
2023-04-02T18:47:07.236Z,5.11
2023-04-02T18:52:18.852Z,4.97
2023-04-02T18:57:32.207Z,5.06
2023-04-02T19:02:34.207Z,5.27
2023-04-02T19:07:40.745Z,5.40
2023-04-02T19:12:42.457Z,5.12
2023-04-02T19:17:51.655Z,5.05
2023-04-02T19:22:59.549Z,5.09
2023-04-02T19:28:13.334Z,5.14
2023-04-02T19:33:24.076Z,5.34
2023-04-02T19:38:53.637Z,4.93
2023-04-02T19:43:56.048Z,4.97
2023-04-02T19:49:05.388Z,4.76
2023-04-02T19:54:07.762Z,4.76
2023-04-02T20:04:18.706Z,4.72
2023-04-02T20:09:21.200Z,4.72
2023-04-02T20:14:23.371Z,4.74
2023-04-02T20:19:25.277Z,4.70
2023-04-02T20:24:27.022Z,4.76
2023-04-02T20:29:30.752Z,4.86
2023-04-02T20:34:32.614Z,4.82
2023-04-02T20:39:34.587Z,4.57
2023-04-02T20:44:37.668Z,4.51
2023-04-02T20:49:39.414Z,4.56
2023-04-02T20:54:41.205Z,4.57
2023-04-02T20:59:42.936Z,4.52
2023-04-02T21:04:44.757Z,4.45
2023-04-02T21:09:46.560Z,4.35
2023-04-02T21:14:49.650Z,4.37
2023-04-02T21:19:51.447Z,4.46
2023-04-02T21:24:53.227Z,4.57
2023-04-02T21:29:55.090Z,4.67
2023-04-02T21:34:56.880Z,4.68
2023-04-02T21:39:58.692Z,4.72
2023-04-02T21:45:00.502Z,4.74
2023-04-02T21:50:02.264Z,4.78
2023-04-02T21:55:04.208Z,4.79
2023-04-02T22:00:09.258Z,4.85
2023-04-02T22:05:11.159Z,4.75
2023-04-02T22:10:12.892Z,4.77
2023-04-02T22:15:14.671Z,4.79
2023-04-02T22:20:16.505Z,4.81
2023-04-02T22:25:18.283Z,4.75
2023-04-02T22:30:20.077Z,4.72
2023-04-02T22:35:21.784Z,4.52
2023-04-02T22:40:23.517Z,4.43
2023-04-02T22:45:25.242Z,4.50
2023-04-02T22:50:27.218Z,4.54
2023-04-02T22:55:28.952Z,4.52
2023-04-02T23:00:31.040Z,4.43
2023-04-02T23:05:33.038Z,4.40
2023-04-02T23:10:34.891Z,4.42
2023-04-02T23:15:36.858Z,4.43
2023-04-02T23:20:38.723Z,4.38
2023-04-02T23:25:41.322Z,4.40
2023-04-02T23:30:44.376Z,4.42
2023-04-02T23:35:46.151Z,4.47
2023-04-02T23:40:47.857Z,4.45
2023-04-02T23:45:50.600Z,4.39
2023-04-02T23:50:52.327Z,4.33
2023-04-02T23:55:54.063Z,4.36
